createdAt,value
2022-09-10T00:02:25.947Z,2.40
2022-09-10T00:04:53.063Z,3.17
2022-09-10T00:07:19.851Z,2.63
2022-09-10T00:09:46.610Z,2.70
2022-09-10T00:12:13.584Z,3.37
2022-09-10T00:14:40.370Z,3.90
2022-09-10T00:17:07.529Z,3.20
2022-09-10T00:19:34.269Z,3.53
2022-09-10T00:22:01.130Z,2.83
2022-09-10T00:24:27.970Z,3.30
2022-09-10T00:26:54.743Z,3.03
2022-09-10T00:29:21.551Z,3.00
2022-09-10T00:31:48.812Z,3.67
2022-09-10T00:34:15.558Z,3.00
2022-09-10T00:36:44.017Z,2.57
2022-09-10T00:39:16.473Z,2.37
2022-09-10T00:41:46.034Z,3.00
2022-09-10T00:44:41.821Z,2.63
2022-09-10T00:47:17.261Z,3.33
2022-09-10T00:49:51.587Z,2.90
2022-09-10T00:52:18.966Z,3.20
2022-09-10T00:54:47.395Z,3.70
2022-09-10T00:57:20.335Z,5.10
2022-09-10T00:59:53.582Z,5.43
2022-09-10T01:02:21.658Z,4.77
2022-09-10T01:04:49.004Z,5.70
2022-09-10T01:07:16.382Z,4.70
2022-09-10T01:09:43.728Z,4.53
2022-09-10T01:12:35.686Z,5.70
2022-09-10T01:15:28.141Z,4.93
2022-09-10T01:17:58.217Z,5.20
2022-09-10T01:21:00.592Z,4.47
2022-09-10T01:23:53.009Z,5.43
2022-09-10T01:26:34.434Z,4.30
2022-09-10T01:29:18.173Z,6.33
2022-09-10T01:31:58.519Z,4.37
2022-09-10T01:34:37.098Z,3.87
2022-09-10T01:37:10.017Z,3.90
2022-09-10T01:39:38.832Z,4.10
2022-09-10T01:42:06.727Z,3.70
2022-09-10T01:44:52.787Z,4.63
2022-09-10T01:48:00.011Z,3.83
2022-09-10T01:50:57.163Z,4.03
2022-09-10T01:53:35.578Z,3.90
2022-09-10T01:56:18.093Z,3.60
2022-09-10T01:58:46.471Z,4.20
2022-09-10T02:01:35.937Z,4.03
2022-09-10T02:04:06.638Z,4.97
2022-09-10T02:06:37.443Z,4.93
2022-09-10T02:09:07.318Z,5.50
2022-09-10T02:11:47.394Z,5.13
2022-09-10T02:14:23.022Z,4.83
2022-09-10T02:17:05.611Z,5.27
2022-09-10T02:19:32.838Z,4.90
2022-09-10T02:22:00.287Z,5.50
2022-09-10T02:24:27.258Z,6.37
2022-09-10T02:26:54.718Z,5.50
2022-09-10T02:29:22.118Z,5.20
2022-09-10T02:31:48.923Z,5.40
2022-09-10T02:34:16.690Z,6.00
2022-09-10T02:36:46.902Z,6.20
2022-09-10T02:39:14.446Z,5.73
2022-09-10T02:41:41.538Z,5.30
2022-09-10T02:44:08.850Z,5.47
2022-09-10T02:46:36.926Z,6.27
2022-09-10T02:49:03.815Z,6.13
2022-09-10T02:51:36.956Z,5.43
2022-09-10T02:54:04.470Z,6.83
2022-09-10T02:56:31.810Z,5.83
2022-09-10T02:58:58.683Z,5.80
2022-09-10T03:01:26.842Z,6.20
2022-09-10T03:03:59.938Z,6.50
2022-09-10T03:06:27.307Z,6.10
2022-09-10T03:08:57.739Z,6.23
2022-09-10T03:11:27.400Z,6.20
2022-09-10T03:13:55.233Z,6.10
2022-09-10T03:16:24.229Z,6.30
2022-09-10T03:18:52.293Z,6.03
2022-09-10T03:21:22.462Z,6.20
2022-09-10T03:23:52.667Z,6.13
2022-09-10T03:26:27.413Z,5.40
2022-09-10T03:28:54.860Z,6.40
2022-09-10T03:31:26.118Z,5.77
2022-09-10T03:33:53.069Z,5.90
2022-09-10T03:36:21.020Z,6.30
2022-09-10T03:38:49.351Z,6.87
2022-09-10T03:41:16.124Z,6.60
2022-09-10T03:43:42.930Z,6.50
2022-09-10T03:46:12.185Z,6.40
2022-09-10T03:48:43.679Z,6.00
2022-09-10T03:51:11.071Z,6.80
2022-09-10T03:53:39.034Z,6.20
2022-09-10T03:56:07.325Z,6.20
2022-09-10T03:58:35.830Z,6.33
2022-09-10T04:01:03.450Z,7.93
2022-09-10T04:03:32.592Z,7.77
2022-09-10T04:05:59.377Z,7.07
2022-09-10T04:08:26.218Z,6.80
2022-09-10T04:10:57.086Z,7.87
2022-09-10T04:13:25.093Z,7.40
2022-09-10T04:15:53.312Z,8.47
2022-09-10T04:18:21.155Z,7.10
2022-09-10T04:20:48.600Z,7.43
2022-09-10T04:23:16.251Z,7.10
2022-09-10T04:25:44.013Z,7.80
2022-09-10T04:28:11.650Z,7.30
2022-09-10T04:30:40.322Z,7.30
2022-09-10T04:33:07.835Z,7.53
2022-09-10T04:35:34.905Z,8.27
2022-09-10T04:38:04.576Z,8.23
2022-09-10T04:40:31.686Z,7.27
2022-09-10T04:43:01.254Z,7.90
2022-09-10T04:45:28.928Z,7.53
2022-09-10T04:47:56.598Z,8.60
2022-09-10T04:50:23.446Z,7.73
2022-09-10T04:53:21.613Z,8.67
2022-09-10T04:55:49.776Z,8.20
2022-09-10T04:58:16.574Z,8.60
2022-09-10T05:00:45.392Z,10.40
2022-09-10T05:03:13.531Z,10.80
2022-09-10T05:05:46.081Z,10.87
2022-09-10T05:08:13.229Z,11.13
2022-09-10T05:10:41.810Z,11.83
2022-09-10T05:13:09.110Z,11.30
2022-09-10T05:15:35.851Z,11.20
2022-09-10T05:18:04.717Z,12.70
2022-09-10T05:20:35.756Z,12.87
2022-09-10T05:23:02.826Z,11.50
2022-09-10T05:25:36.318Z,10.97
2022-09-10T05:28:05.646Z,11.20
2022-09-10T05:30:32.962Z,10.30
2022-09-10T05:33:03.654Z,11.50
2022-09-10T05:35:33.326Z,10.90
2022-09-10T05:38:01.127Z,12.27
2022-09-10T05:40:29.981Z,11.30
2022-09-10T05:42:58.203Z,10.30
2022-09-10T05:45:25.805Z,12.63
2022-09-10T05:47:53.051Z,13.47
2022-09-10T05:50:22.815Z,12.70
2022-09-10T05:52:50.317Z,13.53
2022-09-10T05:55:18.220Z,12.50
2022-09-10T05:57:46.754Z,14.63
2022-09-10T06:00:16.731Z,14.63
2022-09-10T06:02:57.370Z,11.60
2022-09-10T06:05:32.332Z,12.33
2022-09-10T06:08:05.396Z,13.03
2022-09-10T06:10:37.324Z,12.00
2022-09-10T06:13:04.292Z,11.63
2022-09-10T06:15:31.066Z,12.00
2022-09-10T06:17:58.486Z,13.93
2022-09-10T06:20:26.795Z,12.83
2022-09-10T06:22:54.802Z,12.37
2022-09-10T06:25:21.570Z,12.50
2022-09-10T06:27:48.325Z,12.90
2022-09-10T06:30:17.587Z,13.20
2022-09-10T06:32:47.278Z,12.57
2022-09-10T06:35:14.546Z,14.10
2022-09-10T06:37:41.357Z,13.77
2022-09-10T06:40:10.270Z,14.30
2022-09-10T06:42:38.019Z,13.97
2022-09-10T06:45:13.613Z,12.47
2022-09-10T06:48:37.249Z,13.77
2022-09-10T06:51:04.225Z,12.90
2022-09-10T06:53:35.525Z,13.37
2022-09-10T06:56:06.122Z,12.97
2022-09-10T06:58:35.312Z,11.83
2022-09-10T07:01:14.834Z,14.27
2022-09-10T07:03:46.334Z,13.47
2022-09-10T07:06:17.324Z,13.77
2022-09-10T07:08:57.844Z,18.80
2022-09-10T07:11:30.393Z,13.30
2022-09-10T07:14:00.186Z,12.97
2022-09-10T07:16:30.906Z,11.73
2022-09-10T07:19:00.196Z,12.03
2022-09-10T07:21:37.796Z,12.53
2022-09-10T07:24:07.440Z,13.70
2022-09-10T07:26:37.959Z,13.30
2022-09-10T07:29:08.014Z,14.43
2022-09-10T07:31:38.429Z,13.03
2022-09-10T07:34:09.928Z,13.57
2022-09-10T07:36:37.486Z,12.77
2022-09-10T07:39:05.090Z,13.87
2022-09-10T07:41:35.541Z,13.20
2022-09-10T07:44:05.256Z,13.23
2022-09-10T07:46:39.890Z,13.10
2022-09-10T07:49:09.531Z,12.77
2022-09-10T07:51:38.320Z,13.80
2022-09-10T07:54:06.509Z,13.63
2022-09-10T07:56:40.182Z,14.00
2022-09-10T07:59:08.822Z,14.27
2022-09-10T08:01:44.643Z,14.60
2022-09-10T08:04:12.843Z,14.00
2022-09-10T08:06:39.722Z,15.07
2022-09-10T08:09:09.853Z,15.27
2022-09-10T08:11:42.301Z,14.90
2022-09-10T08:14:13.346Z,14.97
2022-09-10T08:16:44.554Z,15.90
2022-09-10T08:19:15.977Z,15.27
2022-09-10T08:21:44.538Z,16.27
2022-09-10T08:24:13.285Z,15.93
2022-09-10T08:26:43.094Z,15.53
2022-09-10T08:29:09.837Z,19.77
2022-09-10T08:31:37.040Z,18.40
2022-09-10T08:34:14.304Z,17.63
2022-09-10T08:36:45.251Z,16.73
2022-09-10T08:39:12.893Z,18.17
2022-09-10T08:42:03.741Z,17.90
2022-09-10T08:44:38.455Z,16.97
2022-09-10T08:47:21.185Z,17.20
2022-09-10T08:50:26.538Z,19.10
2022-09-10T08:53:05.480Z,28.97
2022-09-10T08:55:35.702Z,16.07
2022-09-10T08:58:15.126Z,15.30
2022-09-10T09:00:44.682Z,14.80
2022-09-10T09:03:29.996Z,16.27
2022-09-10T09:06:02.366Z,16.33
2022-09-10T09:08:49.130Z,15.50
2022-09-10T09:11:36.193Z,14.90
2022-09-10T09:14:21.070Z,15.60
2022-09-10T09:16:59.882Z,14.20
2022-09-10T09:19:44.646Z,14.50
2022-09-10T09:22:27.359Z,13.13
2022-09-10T09:24:57.883Z,13.97
2022-09-10T09:27:30.218Z,12.87
2022-09-10T09:30:02.738Z,13.03
2022-09-10T09:32:35.718Z,15.77
2022-09-10T09:35:16.719Z,15.57
2022-09-10T09:37:48.250Z,15.30
2022-09-10T09:40:33.959Z,14.00
2022-09-10T09:43:40.908Z,14.70
2022-09-10T09:46:16.758Z,14.87
2022-09-10T09:48:47.765Z,14.50
2022-09-10T09:51:21.097Z,17.63
2022-09-10T09:54:00.986Z,14.73
2022-09-10T09:56:45.711Z,14.87
2022-09-10T09:59:34.374Z,15.20
2022-09-10T10:02:12.728Z,14.07
2022-09-10T10:04:52.549Z,14.77
2022-09-10T10:07:31.663Z,15.20
2022-09-10T10:10:03.760Z,15.93
2022-09-10T10:12:31.935Z,13.87
2022-09-10T10:15:00.405Z,14.20
2022-09-10T10:17:31.211Z,13.03
2022-09-10T10:20:02.446Z,13.70
2022-09-10T10:22:32.883Z,14.27
2022-09-10T10:25:02.022Z,12.53
2022-09-10T10:27:32.848Z,11.97
2022-09-10T10:30:06.142Z,11.23
2022-09-10T10:32:41.608Z,11.33
2022-09-10T10:35:48.093Z,11.70
2022-09-10T10:38:28.918Z,12.67
2022-09-10T10:41:26.533Z,12.70
2022-09-10T10:44:11.366Z,14.00
2022-09-10T10:47:11.974Z,12.90
2022-09-10T10:49:50.819Z,12.97
2022-09-10T10:52:35.236Z,14.10
2022-09-10T10:55:27.886Z,12.73
2022-09-10T10:58:08.768Z,13.50
2022-09-10T11:00:44.250Z,13.93
2022-09-10T11:03:21.297Z,14.13
2022-09-10T11:06:12.974Z,14.97
2022-09-10T11:08:50.790Z,15.23
2022-09-10T11:11:24.637Z,13.90
2022-09-10T11:13:56.776Z,12.93
2022-09-10T11:16:49.113Z,13.40
2022-09-10T11:19:39.006Z,13.23
2022-09-10T11:22:22.835Z,13.07
2022-09-10T11:24:58.890Z,15.00
2022-09-10T11:27:55.308Z,15.00
2022-09-10T11:30:22.385Z,12.77
2022-09-10T11:33:00.377Z,13.00
2022-09-10T11:36:03.718Z,12.53
2022-09-10T11:38:45.747Z,11.60
2022-09-10T11:41:29.875Z,10.73
2022-09-10T11:44:12.645Z,10.67
2022-09-10T11:46:57.695Z,10.20
2022-09-10T11:49:35.757Z,12.30
2022-09-10T11:52:02.948Z,11.97
2022-09-10T11:54:34.509Z,9.80
2022-09-10T11:57:14.506Z,12.20
2022-09-10T12:00:15.763Z,11.80
2022-09-10T12:03:11.890Z,11.30
2022-09-10T12:05:44.561Z,11.00
2022-09-10T12:08:29.603Z,10.30
2022-09-10T12:11:25.079Z,11.90
2022-09-10T12:13:52.660Z,10.50
2022-09-10T12:16:34.312Z,11.30
2022-09-10T12:19:04.386Z,8.47
2022-09-10T12:21:39.510Z,8.37
2022-09-10T12:24:29.707Z,9.17
2022-09-10T12:26:59.317Z,8.00
2022-09-10T12:29:29.661Z,7.90
2022-09-10T12:32:28.630Z,8.33
2022-09-10T12:35:31.223Z,7.90
2022-09-10T12:38:35.827Z,8.43
2022-09-10T12:41:04.810Z,9.40
2022-09-10T12:43:41.054Z,9.63
2022-09-10T12:46:12.613Z,9.97
2022-09-10T12:48:44.941Z,11.20
2022-09-10T12:51:20.314Z,14.07
2022-09-10T12:53:58.324Z,12.97
2022-09-10T12:56:45.854Z,12.90
2022-09-10T12:59:55.399Z,14.40
2022-09-10T13:02:36.166Z,15.43
2022-09-10T13:05:27.381Z,18.23
2022-09-10T13:08:21.360Z,19.17
2022-09-10T13:10:59.704Z,15.57
2022-09-10T13:13:54.633Z,15.60
2022-09-10T13:16:27.316Z,15.40
2022-09-10T13:19:17.472Z,14.87
2022-09-10T13:21:44.169Z,15.03
2022-09-10T13:24:35.759Z,14.23
2022-09-10T13:27:10.260Z,12.70
2022-09-10T13:29:47.181Z,12.47
2022-09-10T13:32:26.314Z,13.07
2022-09-10T13:35:14.939Z,13.13
2022-09-10T13:37:53.665Z,58.37
2022-09-10T13:40:39.212Z,12.27
2022-09-10T13:43:30.486Z,10.83
2022-09-10T13:46:04.614Z,10.93
2022-09-10T13:48:49.338Z,10.47
2022-09-10T13:51:25.310Z,10.00
2022-09-10T13:53:53.434Z,9.40
2022-09-10T13:56:25.103Z,9.80
2022-09-10T13:58:56.748Z,9.07
2022-09-10T14:01:51.182Z,10.23
2022-09-10T14:04:35.428Z,9.37
2022-09-10T14:07:11.589Z,9.90
2022-09-10T14:09:43.007Z,10.30
2022-09-10T14:12:10.592Z,10.07
2022-09-10T14:14:44.708Z,10.97
2022-09-10T14:17:19.617Z,12.60
2022-09-10T14:20:02.924Z,12.13
2022-09-10T14:22:31.848Z,12.60
2022-09-10T14:25:03.260Z,12.93
2022-09-10T14:27:35.907Z,13.13
2022-09-10T14:30:24.422Z,12.87
2022-09-10T14:32:52.200Z,11.30
2022-09-10T14:35:40.062Z,9.43
2022-09-10T14:38:34.292Z,11.53
2022-09-10T14:41:11.141Z,8.60
2022-09-10T14:43:40.423Z,6.30
2022-09-10T14:46:10.109Z,6.53
2022-09-10T14:48:40.889Z,5.63
2022-09-10T14:51:19.715Z,9.40
2022-09-10T14:53:51.518Z,5.97
2022-09-10T14:56:23.538Z,6.80
2022-09-10T14:59:01.714Z,5.37
2022-09-10T15:01:28.793Z,5.93
2022-09-10T15:03:55.987Z,6.67
2022-09-10T15:06:26.428Z,5.53
2022-09-10T15:08:56.208Z,5.50
2022-09-10T15:11:26.130Z,7.00
2022-09-10T15:13:55.952Z,6.23
2022-09-10T15:16:25.676Z,6.23
2022-09-10T15:18:52.625Z,5.93
2022-09-10T15:21:19.988Z,8.67
2022-09-10T15:23:48.232Z,7.37
2022-09-10T15:26:15.782Z,7.80
2022-09-10T15:28:42.781Z,7.20
2022-09-10T15:31:10.494Z,8.63
2022-09-10T15:33:37.364Z,9.57
2022-09-10T15:36:04.387Z,9.80
2022-09-10T15:38:31.491Z,9.93
2022-09-10T15:41:13.019Z,10.30
2022-09-10T15:43:43.115Z,12.10
2022-09-10T15:46:12.158Z,13.00
2022-09-10T15:48:39.358Z,14.00
2022-09-10T15:51:13.773Z,14.87
2022-09-10T15:53:41.079Z,14.57
2022-09-10T15:56:10.037Z,13.43
2022-09-10T15:58:37.752Z,16.67
2022-09-10T16:01:07.562Z,13.20
2022-09-10T16:03:34.660Z,12.70
2022-09-10T16:06:03.548Z,12.47
2022-09-10T16:08:30.903Z,15.27
2022-09-10T16:10:58.234Z,11.93
2022-09-10T16:13:26.081Z,12.70
2022-09-10T16:16:04.221Z,12.57
2022-09-10T16:18:32.595Z,12.67
2022-09-10T16:21:12.083Z,46.07
2022-09-10T16:23:41.205Z,13.90
2022-09-10T16:26:11.065Z,13.70
2022-09-10T16:28:38.079Z,13.17
2022-09-10T16:31:16.504Z,11.50
2022-09-10T16:33:44.011Z,11.30
2022-09-10T16:36:11.347Z,12.40
2022-09-10T16:38:38.930Z,11.03
2022-09-10T16:41:06.806Z,10.63
2022-09-10T16:43:35.698Z,9.80
2022-09-10T16:46:07.242Z,8.53
2022-09-10T16:48:35.263Z,8.90
2022-09-10T16:51:08.040Z,8.50
2022-09-10T16:53:36.660Z,9.10
2022-09-10T16:56:09.131Z,7.60
2022-09-10T16:58:39.929Z,8.47
2022-09-10T17:01:11.306Z,8.07
2022-09-10T17:03:45.467Z,12.50
2022-09-10T17:06:21.750Z,7.17
2022-09-10T17:08:49.043Z,6.80
2022-09-10T17:11:19.144Z,6.73
2022-09-10T17:13:46.549Z,5.60
2022-09-10T17:16:18.251Z,7.60
2022-09-10T17:18:45.188Z,6.80
2022-09-10T17:21:14.367Z,6.80
2022-09-10T17:23:41.827Z,7.53
2022-09-10T17:26:09.415Z,7.13
2022-09-10T17:28:36.989Z,7.53
2022-09-10T17:31:04.985Z,7.20
2022-09-10T17:33:33.637Z,7.30
2022-09-10T17:36:03.522Z,8.20
2022-09-10T17:38:33.381Z,10.57
2022-09-10T17:41:03.290Z,8.70
2022-09-10T17:43:34.644Z,8.47
2022-09-10T17:46:12.774Z,9.00
2022-09-10T17:48:39.678Z,8.10
2022-09-10T17:51:07.450Z,8.13
2022-09-10T17:53:34.977Z,8.17
2022-09-10T17:56:04.053Z,8.67
2022-09-10T17:58:34.663Z,8.27
2022-09-10T18:01:07.977Z,9.07
2022-09-10T18:03:35.654Z,8.50
2022-09-10T18:06:04.862Z,10.70
2022-09-10T18:08:33.066Z,10.60
2022-09-10T18:11:05.850Z,9.83
2022-09-10T18:13:34.278Z,10.13
2022-09-10T18:16:13.162Z,10.53
2022-09-10T18:18:40.006Z,10.13
2022-09-10T18:21:29.406Z,12.83
2022-09-10T18:24:01.099Z,12.33
2022-09-10T18:26:34.598Z,12.47
2022-09-10T18:29:07.789Z,14.63
2022-09-10T18:31:41.749Z,14.37
2022-09-10T18:34:11.877Z,15.67
2022-09-10T18:36:38.660Z,14.87
2022-09-10T18:39:07.081Z,15.60
2022-09-10T18:41:37.855Z,15.10
2022-09-10T18:44:10.910Z,15.13
2022-09-10T18:46:37.723Z,15.93
2022-09-10T18:49:05.279Z,13.83
2022-09-10T18:51:32.163Z,14.77
2022-09-10T18:54:01.102Z,15.70
2022-09-10T18:56:31.211Z,15.93
2022-09-10T18:59:05.425Z,16.83
2022-09-10T19:01:33.346Z,17.53
2022-09-10T19:04:03.111Z,17.50
2022-09-10T19:06:31.731Z,18.03
2022-09-10T19:09:01.392Z,17.43
2022-09-10T19:11:32.975Z,21.17
2022-09-10T19:14:01.766Z,18.93
2022-09-10T19:16:31.035Z,20.73
2022-09-10T19:19:00.156Z,20.57
2022-09-10T19:21:28.807Z,21.27
2022-09-10T19:24:01.573Z,19.87
2022-09-10T19:26:30.716Z,20.83
2022-09-10T19:28:59.115Z,20.23
2022-09-10T19:31:27.847Z,21.87
2022-09-10T19:33:56.522Z,22.30
2022-09-10T19:36:23.813Z,21.83
2022-09-10T19:38:50.787Z,20.50
2022-09-10T19:41:20.985Z,20.97
2022-09-10T19:43:49.854Z,20.20
2022-09-10T19:46:18.632Z,22.07
2022-09-10T19:48:46.941Z,21.20
2022-09-10T19:51:16.294Z,21.10
2022-09-10T19:53:43.451Z,22.53
2022-09-10T19:56:19.741Z,21.00
2022-09-10T19:58:50.668Z,20.60
2022-09-10T20:01:24.426Z,20.30
2022-09-10T20:03:52.177Z,22.40
2022-09-10T20:06:21.524Z,21.03
2022-09-10T20:08:51.433Z,21.10
2022-09-10T20:11:24.485Z,21.47
2022-09-10T20:13:56.752Z,20.13
2022-09-10T20:16:23.786Z,21.97
2022-09-10T20:18:50.594Z,22.03
2022-09-10T20:21:20.385Z,20.30
2022-09-10T20:23:48.935Z,21.27
2022-09-10T20:26:24.009Z,22.33
2022-09-10T20:28:56.778Z,22.70
2022-09-10T20:31:25.239Z,22.17
2022-09-10T20:33:57.662Z,22.33
2022-09-10T20:36:25.931Z,23.27
2022-09-10T20:38:53.679Z,21.13
2022-09-10T20:41:21.143Z,22.73
2022-09-10T20:43:52.894Z,20.83
2022-09-10T20:46:24.623Z,21.00
2022-09-10T20:48:52.315Z,21.80
2022-09-10T20:51:22.859Z,21.57
2022-09-10T20:53:49.760Z,21.23
2022-09-10T20:56:18.960Z,21.40
2022-09-10T20:58:46.908Z,22.20
2022-09-10T21:01:19.453Z,21.70
2022-09-10T21:03:48.205Z,22.40
2022-09-10T21:06:19.324Z,22.10
2022-09-10T21:08:47.698Z,21.57
2022-09-10T21:11:17.129Z,20.93
2022-09-10T21:13:46.974Z,21.60
2022-09-10T21:16:15.073Z,21.20
2022-09-10T21:18:42.847Z,19.40
2022-09-10T21:21:11.843Z,20.90
2022-09-10T21:23:43.083Z,19.30
2022-09-10T21:26:11.186Z,20.50
2022-09-10T21:28:38.866Z,19.83
2022-09-10T21:31:07.391Z,20.30
2022-09-10T21:33:35.279Z,21.97
2022-09-10T21:36:08.159Z,22.50
2022-09-10T21:38:35.163Z,20.60
2022-09-10T21:41:03.744Z,21.90
2022-09-10T21:43:34.797Z,23.17
2022-09-10T21:46:03.205Z,24.87
2022-09-10T21:48:31.680Z,24.53
2022-09-10T21:51:05.814Z,25.03
2022-09-10T21:53:33.968Z,24.57
2022-09-10T21:56:02.394Z,22.90
2022-09-10T21:58:31.255Z,25.83
2022-09-10T22:00:58.697Z,23.10
2022-09-10T22:03:28.910Z,25.00
2022-09-10T22:06:17.115Z,24.37
2022-09-10T22:08:46.191Z,23.80
2022-09-10T22:11:23.386Z,24.57
2022-09-10T22:13:52.920Z,23.30
2022-09-10T22:16:20.838Z,23.77
2022-09-10T22:18:47.769Z,23.73
2022-09-10T22:21:15.174Z,23.77
2022-09-10T22:23:42.260Z,23.47
2022-09-10T22:26:14.586Z,24.50
2022-09-10T22:28:42.025Z,24.07
2022-09-10T22:31:10.530Z,26.00
2022-09-10T22:33:39.020Z,24.27
2022-09-10T22:36:20.659Z,25.50
2022-09-10T22:38:59.370Z,24.57
2022-09-10T22:41:27.176Z,25.23
2022-09-10T22:43:54.475Z,25.70
2022-09-10T22:46:21.604Z,25.97
2022-09-10T22:48:48.427Z,26.00
2022-09-10T22:51:20.554Z,26.63
2022-09-10T22:53:48.150Z,25.20
2022-09-10T22:56:17.690Z,26.50
2022-09-10T22:58:45.946Z,25.10
2022-09-10T23:01:16.259Z,26.47
2022-09-10T23:03:44.191Z,28.60
2022-09-10T23:06:16.967Z,27.47
2022-09-10T23:17:55.729Z,25.67
2022-09-10T23:20:23.938Z,26.10
2022-09-10T23:22:50.871Z,27.10
2022-09-10T23:25:18.565Z,25.33
2022-09-10T23:27:45.756Z,25.90
2022-09-10T23:30:16.057Z,26.57
2022-09-10T23:32:43.854Z,26.20
2022-09-10T23:35:10.651Z,25.00
2022-09-10T23:37:38.314Z,25.37
2022-09-10T23:40:06.056Z,26.80
2022-09-10T23:42:33.305Z,25.70
2022-09-10T23:45:00.071Z,27.40
2022-09-10T23:47:27.056Z,26.60
2022-09-10T23:49:53.894Z,28.00
2022-09-10T23:52:20.671Z,29.20
2022-09-10T23:54:47.480Z,29.60
2022-09-10T23:57:14.319Z,28.43
2022-09-10T23:59:41.093Z,29.97
